createdAt,value
2024-03-12T00:00:42.775Z,35.40
2024-03-12T00:03:12.745Z,37.50
2024-03-12T00:05:42.635Z,34.50
2024-03-12T00:08:11.997Z,34.73
2024-03-12T00:10:42.562Z,36.40
2024-03-12T00:13:11.456Z,36.70
2024-03-12T00:15:40.927Z,37.13
2024-03-12T00:18:12.420Z,35.60
2024-03-12T00:20:42.574Z,35.63
2024-03-12T00:23:11.447Z,36.97
2024-03-12T00:25:42.220Z,36.53
2024-03-12T00:28:13.288Z,34.60
2024-03-12T00:30:42.816Z,36.77
2024-03-12T00:33:11.863Z,36.13
2024-03-12T00:35:44.885Z,35.73
2024-03-12T00:38:14.048Z,32.90
2024-03-12T00:40:44.406Z,34.90
2024-03-12T00:43:13.562Z,35.90
2024-03-12T00:45:43.398Z,38.40
2024-03-12T00:48:15.046Z,35.27
2024-03-12T00:50:46.790Z,35.73
2024-03-12T00:53:17.047Z,36.70
2024-03-12T00:55:49.043Z,38.87
2024-03-12T00:58:22.140Z,36.87
2024-03-12T01:00:53.491Z,37.97
2024-03-12T01:03:22.552Z,35.80
2024-03-12T01:05:51.731Z,37.33
2024-03-12T01:08:20.656Z,36.40
2024-03-12T01:10:51.196Z,36.90
2024-03-12T01:13:20.201Z,38.63
2024-03-12T01:15:53.762Z,37.77
2024-03-12T01:18:22.644Z,38.73
2024-03-12T01:20:51.893Z,35.83
2024-03-12T01:23:20.791Z,37.90
2024-03-12T01:25:51.068Z,36.03
2024-03-12T01:28:19.938Z,36.57
2024-03-12T01:30:48.740Z,37.40
2024-03-12T01:33:19.715Z,36.60
2024-03-12T01:35:49.339Z,38.07
2024-03-12T01:38:18.181Z,37.83
2024-03-12T01:40:47.865Z,36.53
2024-03-12T01:43:18.210Z,37.97
2024-03-12T01:45:47.292Z,36.20
2024-03-12T01:48:16.677Z,37.30
2024-03-12T01:50:45.684Z,34.33
2024-03-12T01:53:15.535Z,36.53
2024-03-12T01:55:45.938Z,38.80
2024-03-12T01:58:18.821Z,36.47
2024-03-12T02:00:48.584Z,36.57
2024-03-12T02:03:20.557Z,36.30
2024-03-12T02:05:49.801Z,39.27
2024-03-12T02:08:19.243Z,37.67
2024-03-12T02:10:48.343Z,39.10
2024-03-12T02:13:18.929Z,36.93
2024-03-12T02:15:47.933Z,38.03
2024-03-12T02:18:16.776Z,35.33
2024-03-12T02:20:45.619Z,37.80
2024-03-12T02:23:14.637Z,37.47
2024-03-12T02:25:45.186Z,39.10
2024-03-12T02:28:14.452Z,36.90
2024-03-12T02:30:44.462Z,36.43
2024-03-12T02:33:15.601Z,37.07
2024-03-12T02:35:44.828Z,38.70
2024-03-12T02:38:13.753Z,37.07
2024-03-12T02:40:44.162Z,37.67
2024-03-12T02:43:12.996Z,36.87
2024-03-12T02:45:42.141Z,37.50
2024-03-12T02:48:12.520Z,39.47
2024-03-12T02:50:41.480Z,37.87
2024-03-12T02:53:10.440Z,39.60
2024-03-12T02:55:39.257Z,39.00
2024-03-12T02:58:09.786Z,35.43
2024-03-12T03:00:38.880Z,36.27
2024-03-12T03:03:08.251Z,40.53
2024-03-12T03:05:37.135Z,38.97
2024-03-12T03:08:06.374Z,37.73
2024-03-12T03:10:35.153Z,40.67
2024-03-12T03:13:04.089Z,39.93
2024-03-12T03:15:35.717Z,39.70
2024-03-12T03:18:04.743Z,39.37
2024-03-12T03:20:33.722Z,39.73
2024-03-12T03:23:02.611Z,42.13
2024-03-12T03:25:31.517Z,39.67
2024-03-12T03:28:00.376Z,42.57
2024-03-12T03:30:29.282Z,41.70
2024-03-12T03:32:59.840Z,41.60
2024-03-12T03:35:30.692Z,39.70
2024-03-12T03:38:02.268Z,40.73
2024-03-12T03:40:31.243Z,40.37
2024-03-12T03:43:00.123Z,42.70
2024-03-12T03:45:29.127Z,39.47
2024-03-12T03:47:59.561Z,38.40
2024-03-12T03:50:28.599Z,38.73
2024-03-12T03:52:57.607Z,41.27
2024-03-12T03:55:26.434Z,40.90
2024-03-12T03:57:55.751Z,44.10
2024-03-12T04:00:30.117Z,41.57
2024-03-12T04:03:00.559Z,43.00
2024-03-12T04:05:29.495Z,43.10
2024-03-12T04:07:58.505Z,39.23
2024-03-12T04:10:27.535Z,43.07
2024-03-12T04:12:57.596Z,43.67
2024-03-12T04:15:30.682Z,42.67
2024-03-12T04:18:01.159Z,43.37
2024-03-12T04:20:30.236Z,43.07
2024-03-12T04:22:59.221Z,44.40
2024-03-12T04:25:30.037Z,44.27
2024-03-12T04:27:58.975Z,42.20
2024-03-12T04:30:27.997Z,44.23
2024-03-12T04:32:58.040Z,45.20
2024-03-12T04:35:28.348Z,45.77
2024-03-12T04:37:57.187Z,43.40
2024-03-12T04:40:26.113Z,44.10
2024-03-12T04:42:55.222Z,47.70
2024-03-12T04:45:24.259Z,44.03
2024-03-12T04:47:53.520Z,50.43
2024-03-12T04:50:24.675Z,45.50
2024-03-12T04:52:55.068Z,47.00
2024-03-12T04:55:25.195Z,46.13
2024-03-12T04:57:54.099Z,45.23
2024-03-12T05:00:23.125Z,47.87
2024-03-12T05:02:52.120Z,47.53
2024-03-12T05:05:23.228Z,45.97
2024-03-12T05:07:54.155Z,46.20
2024-03-12T05:10:23.743Z,47.90
2024-03-12T05:12:53.280Z,50.63
2024-03-12T05:15:23.186Z,48.80
2024-03-12T05:17:53.883Z,48.17
2024-03-12T05:20:25.161Z,48.30
2024-03-12T05:22:58.857Z,50.63
2024-03-12T05:25:41.341Z,51.17
2024-03-12T05:28:11.870Z,48.63
2024-03-12T05:30:42.739Z,47.17
2024-03-12T05:33:16.389Z,49.67
2024-03-12T05:35:52.981Z,50.33
2024-03-12T05:38:35.397Z,53.20
2024-03-12T05:41:16.738Z,50.77
2024-03-12T05:44:04.114Z,54.80
2024-03-12T05:46:51.198Z,57.93
2024-03-12T05:49:21.250Z,58.90
2024-03-12T05:51:50.312Z,59.03
2024-03-12T05:54:20.679Z,61.20
2024-03-12T05:56:50.925Z,63.23
2024-03-12T05:59:22.830Z,67.30
2024-03-12T06:01:52.887Z,67.90
2024-03-12T06:04:21.881Z,69.30
2024-03-12T06:06:51.044Z,76.07
2024-03-12T06:09:24.317Z,72.17
2024-03-12T06:11:55.267Z,57.63
2024-03-12T06:14:26.901Z,67.30
2024-03-12T06:16:55.813Z,63.80
2024-03-12T06:19:24.683Z,72.00
2024-03-12T06:21:53.582Z,73.70
2024-03-12T06:24:24.048Z,65.83
2024-03-12T06:26:55.550Z,69.60
2024-03-12T06:29:25.494Z,76.00
2024-03-12T06:31:54.370Z,62.40
2024-03-12T06:34:23.352Z,70.00
2024-03-12T06:36:58.165Z,78.80
2024-03-12T06:39:33.154Z,68.80
2024-03-12T06:42:06.674Z,59.63
2024-03-12T06:44:41.872Z,62.57
2024-03-12T06:47:12.207Z,63.53
2024-03-12T06:49:45.922Z,65.53
2024-03-12T06:52:14.887Z,64.17
2024-03-12T06:54:46.749Z,61.67
2024-03-12T06:57:15.607Z,61.50
2024-03-12T06:59:48.759Z,60.70
2024-03-12T07:02:19.644Z,60.73
2024-03-12T07:04:50.019Z,57.67
2024-03-12T07:07:21.067Z,60.47
2024-03-12T07:09:52.961Z,58.63
2024-03-12T07:12:21.879Z,59.50
2024-03-12T07:14:56.678Z,58.80
2024-03-12T07:17:26.777Z,56.37
2024-03-12T07:19:59.527Z,57.17
2024-03-12T07:22:28.312Z,60.30
2024-03-12T07:24:58.591Z,56.77
2024-03-12T07:27:27.716Z,59.20
2024-03-12T07:29:56.668Z,56.60
2024-03-12T07:32:25.644Z,55.63
2024-03-12T07:34:54.752Z,54.27
2024-03-12T07:37:23.724Z,56.50
2024-03-12T07:39:52.952Z,51.17
2024-03-12T07:42:23.401Z,52.27
2024-03-12T07:44:52.281Z,53.17
2024-03-12T07:47:22.079Z,54.00
2024-03-12T07:49:50.976Z,54.03
2024-03-12T07:52:20.574Z,53.87
2024-03-12T07:54:49.519Z,52.93
2024-03-12T07:57:21.446Z,59.30
2024-03-12T07:59:52.288Z,53.90
2024-03-12T08:02:23.120Z,54.70
2024-03-12T08:04:52.008Z,48.53
2024-03-12T08:07:21.733Z,54.80
2024-03-12T08:09:51.014Z,49.07
2024-03-12T08:12:21.150Z,45.20
2024-03-12T08:14:51.598Z,46.27
2024-03-12T08:17:21.160Z,47.40
2024-03-12T08:19:50.626Z,49.33
2024-03-12T08:22:20.801Z,45.87
2024-03-12T08:24:51.914Z,46.37
2024-03-12T08:27:21.311Z,47.00
2024-03-12T08:29:52.346Z,47.43
2024-03-12T08:32:22.582Z,48.10
2024-03-12T08:34:53.281Z,43.97
2024-03-12T08:37:24.028Z,42.23
2024-03-12T08:39:54.572Z,44.70
2024-03-12T08:42:23.837Z,46.40
2024-03-12T08:44:55.399Z,40.63
2024-03-12T08:47:25.352Z,41.63
2024-03-12T08:49:54.469Z,42.13
2024-03-12T08:52:23.745Z,46.37
2024-03-12T08:54:53.311Z,45.77
2024-03-12T08:57:22.212Z,42.47
2024-03-12T08:59:52.149Z,41.93
2024-03-12T09:02:22.466Z,45.53
2024-03-12T09:04:51.421Z,44.47
2024-03-12T09:07:21.265Z,43.93
2024-03-12T09:09:52.513Z,45.57
2024-03-12T09:12:22.720Z,46.03
2024-03-12T09:14:51.671Z,47.83
2024-03-12T09:17:21.926Z,46.03
2024-03-12T09:19:51.161Z,46.70
2024-03-12T09:22:20.107Z,43.83
2024-03-12T09:24:49.294Z,43.30
2024-03-12T09:27:18.230Z,42.60
2024-03-12T09:29:47.091Z,42.47
2024-03-12T09:32:19.279Z,41.40
2024-03-12T09:34:50.807Z,42.80
2024-03-12T09:37:19.691Z,39.87
2024-03-12T09:39:48.581Z,40.83
2024-03-12T09:42:19.093Z,42.13
2024-03-12T09:44:48.017Z,38.20
2024-03-12T09:47:17.293Z,44.67
2024-03-12T09:49:46.500Z,40.43
2024-03-12T09:52:17.130Z,39.63
2024-03-12T09:54:46.229Z,39.60
2024-03-12T09:57:15.899Z,38.00
2024-03-12T09:59:44.848Z,53.87
2024-03-12T10:02:16.351Z,42.30
2024-03-12T10:04:45.564Z,44.40
2024-03-12T10:07:18.263Z,57.67
2024-03-12T10:09:47.549Z,37.20
2024-03-12T10:12:21.668Z,36.90
2024-03-12T10:14:50.586Z,36.73
2024-03-12T10:17:19.461Z,36.73
2024-03-12T10:19:50.653Z,37.77
2024-03-12T10:22:23.459Z,34.67
2024-03-12T10:24:53.608Z,34.47
2024-03-12T10:27:22.481Z,36.33
2024-03-12T10:29:51.601Z,35.90
2024-03-12T10:32:21.381Z,36.20
2024-03-12T10:34:52.211Z,38.50
2024-03-12T10:37:33.671Z,52.37
2024-03-12T10:40:16.882Z,36.37
2024-03-12T10:42:54.266Z,36.33
2024-03-12T10:45:25.072Z,48.10
2024-03-12T10:47:55.246Z,42.90
2024-03-12T10:50:24.772Z,37.60
2024-03-12T10:52:56.561Z,42.43
2024-03-12T10:55:26.200Z,43.87
2024-03-12T10:57:56.844Z,56.93
2024-03-12T11:00:27.424Z,42.37
2024-03-12T11:02:57.051Z,41.63
2024-03-12T11:05:28.452Z,37.97
2024-03-12T11:07:59.796Z,36.83
2024-03-12T11:10:31.889Z,36.43
2024-03-12T11:13:03.085Z,35.87
2024-03-12T11:15:34.817Z,35.23
2024-03-12T11:18:04.745Z,36.67
2024-03-12T11:20:35.265Z,36.67
2024-03-12T11:23:05.888Z,38.37
2024-03-12T11:25:36.536Z,38.10
2024-03-12T11:28:27.882Z,36.53
2024-03-12T11:31:11.344Z,35.90
2024-03-12T11:33:46.758Z,36.97
2024-03-12T11:36:24.239Z,39.87
2024-03-12T11:38:55.929Z,42.13
2024-03-12T11:41:27.065Z,43.27
2024-03-12T11:43:56.242Z,41.80
2024-03-12T11:46:45.702Z,43.40
2024-03-12T11:49:39.868Z,44.97
2024-03-12T11:52:09.295Z,42.87
2024-03-12T11:54:46.505Z,41.00
2024-03-12T11:57:31.480Z,50.37
2024-03-12T12:00:01.380Z,42.33
2024-03-12T12:02:30.400Z,40.37
2024-03-12T12:04:59.507Z,43.17
2024-03-12T12:07:29.706Z,43.80
2024-03-12T12:10:00.209Z,44.70
2024-03-12T12:12:30.154Z,64.10
2024-03-12T12:14:59.613Z,46.33
2024-03-12T12:17:28.525Z,46.03
2024-03-12T12:20:19.451Z,46.33
2024-03-12T12:22:48.988Z,41.07
2024-03-12T12:25:20.512Z,42.40
2024-03-12T12:27:50.506Z,40.47
2024-03-12T12:30:22.382Z,41.47
2024-03-12T12:32:53.783Z,45.17
2024-03-12T12:35:24.621Z,45.20
2024-03-12T12:37:54.562Z,41.67
2024-03-12T12:40:29.042Z,42.60
2024-03-12T12:42:59.582Z,44.03
2024-03-12T12:45:28.470Z,43.83
2024-03-12T12:47:57.375Z,43.57
2024-03-12T12:50:33.646Z,40.30
2024-03-12T12:53:03.791Z,41.43
2024-03-12T12:55:34.416Z,44.33
2024-03-12T12:58:04.604Z,47.60
2024-03-12T13:00:37.878Z,48.40
2024-03-12T13:03:19.001Z,44.97
2024-03-12T13:05:48.607Z,42.03
2024-03-12T13:08:28.466Z,41.67
2024-03-12T13:11:06.609Z,43.83
2024-03-12T13:13:36.688Z,44.50
2024-03-12T13:16:14.847Z,43.77
2024-03-12T13:18:46.520Z,42.30
2024-03-12T13:21:16.363Z,43.77
2024-03-12T13:23:46.501Z,42.33
2024-03-12T13:26:19.283Z,43.07
2024-03-12T13:28:51.427Z,42.13
2024-03-12T13:31:20.949Z,43.33
2024-03-12T13:33:49.916Z,42.60
2024-03-12T13:36:21.293Z,44.37
2024-03-12T13:38:51.304Z,43.17
2024-03-12T13:41:26.020Z,43.20
2024-03-12T13:43:56.429Z,42.13
2024-03-12T13:46:25.379Z,41.77
2024-03-12T13:49:12.214Z,43.47
2024-03-12T13:51:43.525Z,40.63
2024-03-12T13:54:12.832Z,42.03
2024-03-12T13:56:46.746Z,43.87
2024-03-12T13:59:19.031Z,40.07
2024-03-12T14:01:49.257Z,40.57
2024-03-12T14:04:19.215Z,40.50
2024-03-12T14:06:49.089Z,38.53
2024-03-12T14:09:18.890Z,38.13
2024-03-12T14:11:49.352Z,41.20
2024-03-12T14:14:18.310Z,40.30
2024-03-12T14:16:47.240Z,39.03
2024-03-12T14:19:16.933Z,38.73
2024-03-12T14:21:45.988Z,38.33
2024-03-12T14:24:14.930Z,38.93
2024-03-12T14:26:43.880Z,38.93
2024-03-12T14:29:14.317Z,37.57
2024-03-12T14:31:43.372Z,41.90
2024-03-12T14:34:12.322Z,38.60
2024-03-12T14:36:41.680Z,38.40
2024-03-12T14:39:13.880Z,40.37
2024-03-12T14:41:43.312Z,38.33
2024-03-12T14:44:14.699Z,40.00
2024-03-12T14:46:43.690Z,38.93
2024-03-12T14:49:14.454Z,37.50
2024-03-12T14:51:43.784Z,38.10
2024-03-12T14:54:12.688Z,38.03
2024-03-12T14:56:41.801Z,40.07
2024-03-12T14:59:10.681Z,38.23
2024-03-12T15:01:42.289Z,37.90
2024-03-12T15:04:11.222Z,39.10
2024-03-12T15:06:44.723Z,39.40
2024-03-12T15:09:15.483Z,45.10
2024-03-12T15:11:44.461Z,38.07
2024-03-12T15:14:15.207Z,38.63
2024-03-12T15:16:48.080Z,39.43
2024-03-12T15:19:20.371Z,39.13
2024-03-12T15:21:50.323Z,37.90
2024-03-12T15:24:21.322Z,37.80
2024-03-12T15:26:50.581Z,37.07
2024-03-12T15:29:20.160Z,39.27
2024-03-12T15:31:51.525Z,40.80
2024-03-12T15:34:20.569Z,40.13
2024-03-12T15:36:51.223Z,38.50
2024-03-12T15:39:21.876Z,39.10
2024-03-12T15:41:50.923Z,40.93
2024-03-12T15:44:20.164Z,42.20
2024-03-12T15:46:50.627Z,39.83
2024-03-12T15:49:22.050Z,42.03
2024-03-12T15:51:51.131Z,40.37
2024-03-12T15:54:21.011Z,40.97
2024-03-12T15:56:51.408Z,40.27
2024-03-12T15:59:21.246Z,41.00
2024-03-12T16:01:51.683Z,39.20
2024-03-12T16:04:21.164Z,40.73
2024-03-12T16:06:50.169Z,40.27
2024-03-12T16:09:22.404Z,40.57
2024-03-12T16:11:51.848Z,40.10
2024-03-12T16:14:23.052Z,39.70
2024-03-12T16:16:55.160Z,42.07
2024-03-12T16:19:24.207Z,48.90
2024-03-12T16:21:55.738Z,41.87
2024-03-12T16:24:24.725Z,42.30
2024-03-12T16:26:54.083Z,39.30
2024-03-12T16:29:25.270Z,40.67
2024-03-12T16:31:56.049Z,41.73
2024-03-12T16:34:27.244Z,42.60
2024-03-12T16:36:56.284Z,40.50
2024-03-12T16:39:25.311Z,41.87
2024-03-12T16:41:58.057Z,43.10
2024-03-12T16:44:27.487Z,45.40
2024-03-12T16:46:58.022Z,42.30
2024-03-12T16:49:27.456Z,43.77
2024-03-12T16:51:56.409Z,41.43
2024-03-12T16:54:27.447Z,43.70
2024-03-12T16:56:57.482Z,42.60
2024-03-12T16:59:27.549Z,41.17
2024-03-12T17:01:58.762Z,43.43
2024-03-12T17:04:28.366Z,42.90
2024-03-12T17:07:09.643Z,49.07
2024-03-12T17:09:39.568Z,48.90
2024-03-12T17:12:10.610Z,50.27
2024-03-12T17:14:39.942Z,50.53
2024-03-12T17:17:12.689Z,48.57
2024-03-12T17:19:42.009Z,48.87
2024-03-12T17:22:12.136Z,49.83
2024-03-12T17:24:41.651Z,48.13
2024-03-12T17:27:11.877Z,47.00
2024-03-12T17:29:42.962Z,44.83
2024-03-12T17:32:15.156Z,48.03
2024-03-12T17:34:45.085Z,46.27
2024-03-12T17:37:18.788Z,47.70
2024-03-12T17:39:49.328Z,47.07
2024-03-12T17:42:22.120Z,48.80
2024-03-12T17:44:51.962Z,50.20
2024-03-12T17:47:25.041Z,47.17
2024-03-12T17:49:56.164Z,49.87
2024-03-12T17:52:25.610Z,49.50
2024-03-12T17:54:56.226Z,51.73
2024-03-12T17:57:29.966Z,49.53
2024-03-12T18:00:01.125Z,50.73
2024-03-12T18:02:32.555Z,52.33
2024-03-12T18:05:01.857Z,52.20
2024-03-12T18:07:37.704Z,50.57
2024-03-12T18:10:09.720Z,50.57
2024-03-12T18:12:41.178Z,51.70
2024-03-12T18:15:13.277Z,50.47
2024-03-12T18:17:46.960Z,52.77
2024-03-12T18:20:26.876Z,53.07
2024-03-12T18:22:56.285Z,52.50
2024-03-12T18:25:25.775Z,53.67
2024-03-12T18:27:57.724Z,51.87
2024-03-12T18:30:28.425Z,60.00
2024-03-12T18:33:00.051Z,58.23
2024-03-12T18:35:29.372Z,54.80
2024-03-12T18:37:59.815Z,50.63
2024-03-12T18:40:29.154Z,56.27
2024-03-12T18:42:58.187Z,57.27
2024-03-12T18:45:27.051Z,53.30
2024-03-12T18:47:59.413Z,54.13
2024-03-12T18:50:30.124Z,50.20
2024-03-12T18:53:01.091Z,50.97
2024-03-12T18:55:32.776Z,48.50
2024-03-12T18:58:02.793Z,55.00
2024-03-12T19:00:32.983Z,54.60
2024-03-12T19:03:15.975Z,51.53
2024-03-12T19:05:46.960Z,47.63
2024-03-12T19:08:17.044Z,50.47
2024-03-12T19:10:46.874Z,50.17
2024-03-12T19:13:17.894Z,54.17
2024-03-12T19:15:48.070Z,53.20
2024-03-12T19:18:21.874Z,50.00
2024-03-12T19:20:53.185Z,56.03
2024-03-12T19:23:23.140Z,50.57
2024-03-12T19:25:52.242Z,56.60
2024-03-12T19:28:21.981Z,49.23
2024-03-12T19:30:52.324Z,51.90
2024-03-12T19:33:26.079Z,56.00
2024-03-12T19:35:56.613Z,65.40
2024-03-12T19:38:26.345Z,62.90
2024-03-12T19:40:56.588Z,53.00
2024-03-12T19:43:29.316Z,54.87
2024-03-12T19:46:00.472Z,54.00
2024-03-12T19:48:32.706Z,60.10
2024-03-12T19:51:02.074Z,53.73
2024-03-12T19:53:31.400Z,53.40
2024-03-12T19:56:00.565Z,54.50
2024-03-12T19:58:30.281Z,56.90
2024-03-12T20:00:59.569Z,59.17
2024-03-12T20:03:30.477Z,59.03
2024-03-12T20:06:00.543Z,59.57
2024-03-12T20:08:30.255Z,55.87
2024-03-12T20:11:02.099Z,56.17
2024-03-12T20:13:31.396Z,54.80
2024-03-12T20:16:00.946Z,54.10
2024-03-12T20:18:35.891Z,56.57
2024-03-12T20:21:05.139Z,54.50
2024-03-12T20:23:34.784Z,53.83
2024-03-12T20:26:04.549Z,53.10
2024-03-12T20:28:34.117Z,56.20
2024-03-12T20:31:04.331Z,53.70
2024-03-12T20:33:35.036Z,52.23
2024-03-12T20:36:06.263Z,54.87
2024-03-12T20:38:35.277Z,55.27
2024-03-12T20:41:05.989Z,48.87
2024-03-12T20:43:35.570Z,55.03
2024-03-12T20:46:04.660Z,55.13
2024-03-12T20:48:35.244Z,51.80
2024-03-12T20:51:04.558Z,215.07
2024-03-12T20:53:35.337Z,58.80
2024-03-12T20:56:08.647Z,51.20
2024-03-12T20:58:38.249Z,52.23
2024-03-12T21:01:10.473Z,53.50
2024-03-12T21:03:42.007Z,52.00
2024-03-12T21:06:11.080Z,52.03
2024-03-12T21:08:40.559Z,49.27
2024-03-12T21:11:11.531Z,49.90
2024-03-12T21:13:41.114Z,50.90
2024-03-12T21:16:11.143Z,49.30
2024-03-12T21:18:42.488Z,48.47
2024-03-12T21:21:16.638Z,49.70
2024-03-12T21:23:47.377Z,49.60
2024-03-12T21:26:25.195Z,53.40
2024-03-12T21:28:54.554Z,57.10
2024-03-12T21:31:24.219Z,54.77
2024-03-12T21:33:55.391Z,54.57
2024-03-12T21:36:25.223Z,56.70
2024-03-12T21:38:54.297Z,55.17
2024-03-12T21:41:23.452Z,56.20
2024-03-12T21:43:52.500Z,60.50
2024-03-12T21:46:22.679Z,59.10
2024-03-12T21:48:52.305Z,52.60
2024-03-12T21:51:28.226Z,52.20
2024-03-12T21:53:57.522Z,53.87
2024-03-12T21:56:27.499Z,48.50
2024-03-12T21:58:56.706Z,48.00
2024-03-12T22:01:27.263Z,46.43
2024-03-12T22:03:56.741Z,43.33
2024-03-12T22:06:27.227Z,43.60
2024-03-12T22:08:57.012Z,39.60
2024-03-12T22:11:26.063Z,35.63
2024-03-12T22:13:55.153Z,34.27
2024-03-12T22:16:24.238Z,35.40
2024-03-12T22:18:53.273Z,33.73
2024-03-12T22:21:27.058Z,35.83
2024-03-12T22:24:00.774Z,33.67
2024-03-12T22:26:33.352Z,33.60
2024-03-12T22:29:02.365Z,31.50
2024-03-12T22:31:31.258Z,32.87
2024-03-12T22:34:00.263Z,30.10
2024-03-12T22:36:29.238Z,31.17
2024-03-12T22:39:00.456Z,29.30
2024-03-12T22:41:31.324Z,29.50
2024-03-12T22:44:01.968Z,26.90
2024-03-12T22:46:35.683Z,30.47
2024-03-12T22:49:05.444Z,30.60
2024-03-12T22:51:36.188Z,30.67
2024-03-12T22:54:26.767Z,28.33
2024-03-12T22:56:58.996Z,29.50
2024-03-12T22:59:30.497Z,29.67
2024-03-12T23:02:02.296Z,27.50
2024-03-12T23:04:32.415Z,29.30
2024-03-12T23:07:03.129Z,26.13
2024-03-12T23:09:34.533Z,26.53
2024-03-12T23:12:05.361Z,26.57
2024-03-12T23:14:36.089Z,27.70
2024-03-12T23:17:06.371Z,30.33
2024-03-12T23:19:41.690Z,29.03
2024-03-12T23:22:11.731Z,28.37
2024-03-12T23:24:42.754Z,27.53
2024-03-12T23:27:12.756Z,28.07
2024-03-12T23:29:43.970Z,29.17
2024-03-12T23:32:16.561Z,28.73
2024-03-12T23:34:47.137Z,29.17
2024-03-12T23:37:16.301Z,26.60
2024-03-12T23:39:47.332Z,28.40
2024-03-12T23:42:16.274Z,30.60
2024-03-12T23:44:46.572Z,27.40
2024-03-12T23:47:15.462Z,30.60
2024-03-12T23:49:44.584Z,27.90
2024-03-12T23:52:13.612Z,27.90
2024-03-12T23:54:42.705Z,32.73
2024-03-12T23:57:14.218Z,27.00
2024-03-12T23:59:46.024Z,29.47
